sensor_id;sensor_type;location;lat;lon;timestamp;P1;durP1;ratioP1;P2;durP2;ratioP2
5125;SDS011;63008;53.112;8.896;2023-05-07T00:01:35;18.90;;;14.93;;
5125;SDS011;63008;53.112;8.896;2023-05-07T00:03:36;21.10;;;16.77;;
5125;SDS011;63008;53.112;8.896;2023-05-07T00:05:37;19.53;;;15.00;;
5125;SDS011;63008;53.112;8.896;2023-05-07T00:07:38;16.63;;;14.37;;
5125;SDS011;63008;53.112;8.896;2023-05-07T00:09:39;18.00;;;15.30;;
5125;SDS011;63008;53.112;8.896;2023-05-07T00:11:40;20.50;;;15.07;;
5125;SDS011;63008;53.112;8.896;2023-05-07T00:13:41;17.77;;;15.00;;
5125;SDS011;63008;53.112;8.896;2023-05-07T00:15:42;17.10;;;14.60;;
5125;SDS011;63008;53.112;8.896;2023-05-07T00:17:43;17.03;;;13.60;;
5125;SDS011;63008;53.112;8.896;2023-05-07T00:19:44;19.50;;;15.30;;
5125;SDS011;63008;53.112;8.896;2023-05-07T00:21:45;17.23;;;14.43;;
5125;SDS011;63008;53.112;8.896;2023-05-07T00:23:46;20.73;;;16.40;;
5125;SDS011;63008;53.112;8.896;2023-05-07T00:25:47;18.23;;;14.50;;
5125;SDS011;63008;53.112;8.896;2023-05-07T00:27:48;22.27;;;16.50;;
5125;SDS011;63008;53.112;8.896;2023-05-07T00:29:49;21.60;;;15.37;;
5125;SDS011;63008;53.112;8.896;2023-05-07T00:31:50;19.63;;;15.33;;
5125;SDS011;63008;53.112;8.896;2023-05-07T00:33:51;20.03;;;15.70;;
5125;SDS011;63008;53.112;8.896;2023-05-07T00:35:52;23.80;;;15.90;;
5125;SDS011;63008;53.112;8.896;2023-05-07T00:37:54;25.10;;;16.63;;
5125;SDS011;63008;53.112;8.896;2023-05-07T00:39:56;20.90;;;15.93;;
5125;SDS011;63008;53.112;8.896;2023-05-07T00:41:57;19.90;;;15.53;;
5125;SDS011;63008;53.112;8.896;2023-05-07T00:43:58;22.33;;;15.07;;
5125;SDS011;63008;53.112;8.896;2023-05-07T00:45:59;20.60;;;15.90;;
5125;SDS011;63008;53.112;8.896;2023-05-07T00:48:01;19.53;;;15.20;;
5125;SDS011;63008;53.112;8.896;2023-05-07T00:50:03;20.63;;;15.93;;
5125;SDS011;63008;53.112;8.896;2023-05-07T00:52:05;20.20;;;16.10;;
5125;SDS011;63008;53.112;8.896;2023-05-07T00:54:07;23.03;;;16.33;;
5125;SDS011;63008;53.112;8.896;2023-05-07T00:56:09;20.87;;;15.80;;
5125;SDS011;63008;53.112;8.896;2023-05-07T00:58:10;18.63;;;15.87;;
5125;SDS011;63008;53.112;8.896;2023-05-07T01:00:11;19.23;;;14.73;;
5125;SDS011;63008;53.112;8.896;2023-05-07T01:02:13;18.47;;;15.60;;
5125;SDS011;63008;53.112;8.896;2023-05-07T01:04:13;23.13;;;15.80;;
5125;SDS011;63008;53.112;8.896;2023-05-07T01:06:14;17.33;;;14.70;;
5125;SDS011;63008;53.112;8.896;2023-05-07T01:08:17;18.70;;;15.90;;
5125;SDS011;63008;53.112;8.896;2023-05-07T01:10:18;22.00;;;16.97;;
5125;SDS011;63008;53.112;8.896;2023-05-07T01:12:20;19.03;;;15.60;;
5125;SDS011;63008;53.112;8.896;2023-05-07T01:14:21;20.70;;;15.93;;
5125;SDS011;63008;53.112;8.896;2023-05-07T01:16:22;17.23;;;14.10;;
5125;SDS011;63008;53.112;8.896;2023-05-07T01:18:23;17.90;;;14.10;;
5125;SDS011;63008;53.112;8.896;2023-05-07T01:20:26;20.23;;;16.00;;
5125;SDS011;63008;53.112;8.896;2023-05-07T01:22:38;17.47;;;14.40;;
5125;SDS011;63008;53.112;8.896;2023-05-07T01:24:39;21.10;;;14.57;;
5125;SDS011;63008;53.112;8.896;2023-05-07T01:26:41;18.97;;;13.77;;
5125;SDS011;63008;53.112;8.896;2023-05-07T01:28:43;17.63;;;14.30;;
5125;SDS011;63008;53.112;8.896;2023-05-07T01:30:46;18.93;;;15.77;;
5125;SDS011;63008;53.112;8.896;2023-05-07T01:32:53;20.73;;;14.57;;
5125;SDS011;63008;53.112;8.896;2023-05-07T01:34:59;17.37;;;13.70;;
5125;SDS011;63008;53.112;8.896;2023-05-07T01:37:03;18.53;;;14.00;;
5125;SDS011;63008;53.112;8.896;2023-05-07T01:39:04;18.17;;;14.13;;
5125;SDS011;63008;53.112;8.896;2023-05-07T01:41:06;20.17;;;14.70;;
5125;SDS011;63008;53.112;8.896;2023-05-07T01:43:07;18.20;;;14.13;;
5125;SDS011;63008;53.112;8.896;2023-05-07T01:45:10;23.43;;;14.80;;
5125;SDS011;63008;53.112;8.896;2023-05-07T01:47:12;17.27;;;13.93;;
5125;SDS011;63008;53.112;8.896;2023-05-07T01:49:14;17.20;;;13.40;;
5125;SDS011;63008;53.112;8.896;2023-05-07T01:51:16;20.43;;;14.30;;
5125;SDS011;63008;53.112;8.896;2023-05-07T01:53:17;15.97;;;13.10;;
5125;SDS011;63008;53.112;8.896;2023-05-07T01:55:18;17.90;;;12.80;;
5125;SDS011;63008;53.112;8.896;2023-05-07T01:57:19;18.37;;;13.13;;
5125;SDS011;63008;53.112;8.896;2023-05-07T01:59:21;17.17;;;12.80;;
5125;SDS011;63008;53.112;8.896;2023-05-07T02:01:22;18.70;;;14.47;;
5125;SDS011;63008;53.112;8.896;2023-05-07T02:03:23;16.33;;;14.30;;
5125;SDS011;63008;53.112;8.896;2023-05-07T02:05:24;19.23;;;12.97;;
5125;SDS011;63008;53.112;8.896;2023-05-07T02:07:25;18.93;;;15.10;;
5125;SDS011;63008;53.112;8.896;2023-05-07T02:09:26;18.53;;;13.83;;
5125;SDS011;63008;53.112;8.896;2023-05-07T02:11:27;19.77;;;12.53;;
5125;SDS011;63008;53.112;8.896;2023-05-07T02:13:28;17.13;;;13.13;;
5125;SDS011;63008;53.112;8.896;2023-05-07T02:15:30;17.17;;;13.73;;
5125;SDS011;63008;53.112;8.896;2023-05-07T02:17:31;24.63;;;14.63;;
5125;SDS011;63008;53.112;8.896;2023-05-07T02:19:33;19.83;;;15.07;;
5125;SDS011;63008;53.112;8.896;2023-05-07T02:21:34;18.23;;;14.17;;
5125;SDS011;63008;53.112;8.896;2023-05-07T02:23:35;19.17;;;15.57;;
5125;SDS011;63008;53.112;8.896;2023-05-07T02:25:36;19.60;;;14.30;;
5125;SDS011;63008;53.112;8.896;2023-05-07T02:27:37;23.10;;;14.80;;
5125;SDS011;63008;53.112;8.896;2023-05-07T02:29:38;20.57;;;14.97;;
5125;SDS011;63008;53.112;8.896;2023-05-07T02:31:39;17.27;;;13.70;;
5125;SDS011;63008;53.112;8.896;2023-05-07T02:33:40;22.40;;;14.80;;
5125;SDS011;63008;53.112;8.896;2023-05-07T02:35:41;21.33;;;15.43;;
5125;SDS011;63008;53.112;8.896;2023-05-07T02:37:42;17.93;;;14.50;;
5125;SDS011;63008;53.112;8.896;2023-05-07T02:39:43;16.33;;;13.87;;
5125;SDS011;63008;53.112;8.896;2023-05-07T02:41:44;23.37;;;16.00;;
5125;SDS011;63008;53.112;8.896;2023-05-07T02:43:45;22.63;;;16.10;;
5125;SDS011;63008;53.112;8.896;2023-05-07T02:45:46;19.67;;;15.03;;
5125;SDS011;63008;53.112;8.896;2023-05-07T02:47:47;19.53;;;15.20;;
5125;SDS011;63008;53.112;8.896;2023-05-07T02:49:48;19.40;;;15.80;;
5125;SDS011;63008;53.112;8.896;2023-05-07T02:51:49;20.77;;;14.60;;
5125;SDS011;63008;53.112;8.896;2023-05-07T02:53:50;21.60;;;15.43;;
5125;SDS011;63008;53.112;8.896;2023-05-07T02:55:52;21.10;;;16.40;;
5125;SDS011;63008;53.112;8.896;2023-05-07T02:57:56;19.27;;;14.13;;
5125;SDS011;63008;53.112;8.896;2023-05-07T02:59:58;17.90;;;13.43;;
5125;SDS011;63008;53.112;8.896;2023-05-07T03:01:59;21.90;;;15.73;;
5125;SDS011;63008;53.112;8.896;2023-05-07T03:04:00;19.27;;;14.80;;
5125;SDS011;63008;53.112;8.896;2023-05-07T03:06:01;20.90;;;14.20;;
5125;SDS011;63008;53.112;8.896;2023-05-07T03:08:02;23.10;;;16.53;;
5125;SDS011;63008;53.112;8.896;2023-05-07T03:10:04;21.03;;;16.07;;
5125;SDS011;63008;53.112;8.896;2023-05-07T03:12:05;20.50;;;15.20;;
5125;SDS011;63008;53.112;8.896;2023-05-07T03:14:06;18.80;;;14.70;;
5125;SDS011;63008;53.112;8.896;2023-05-07T03:16:07;21.13;;;15.20;;
5125;SDS011;63008;53.112;8.896;2023-05-07T03:18:08;21.00;;;13.90;;
5125;SDS011;63008;53.112;8.896;2023-05-07T03:20:10;23.57;;;14.03;;
5125;SDS011;63008;53.112;8.896;2023-05-07T03:22:11;21.57;;;14.97;;
5125;SDS011;63008;53.112;8.896;2023-05-07T03:24:12;18.90;;;14.63;;
5125;SDS011;63008;53.112;8.896;2023-05-07T03:26:13;20.77;;;14.57;;
5125;SDS011;63008;53.112;8.896;2023-05-07T03:28:14;20.83;;;15.20;;
5125;SDS011;63008;53.112;8.896;2023-05-07T03:30:15;19.70;;;14.97;;
5125;SDS011;63008;53.112;8.896;2023-05-07T03:32:16;18.03;;;13.97;;
5125;SDS011;63008;53.112;8.896;2023-05-07T03:34:17;19.03;;;14.00;;
5125;SDS011;63008;53.112;8.896;2023-05-07T03:36:23;18.90;;;14.43;;
5125;SDS011;63008;53.112;8.896;2023-05-07T03:38:24;17.70;;;14.20;;
5125;SDS011;63008;53.112;8.896;2023-05-07T03:40:25;19.23;;;14.23;;
5125;SDS011;63008;53.112;8.896;2023-05-07T03:42:26;21.00;;;15.47;;
5125;SDS011;63008;53.112;8.896;2023-05-07T03:44:27;21.23;;;15.03;;
5125;SDS011;63008;53.112;8.896;2023-05-07T03:46:28;18.20;;;14.40;;
5125;SDS011;63008;53.112;8.896;2023-05-07T03:48:29;18.60;;;14.17;;
5125;SDS011;63008;53.112;8.896;2023-05-07T03:50:30;18.00;;;13.13;;
5125;SDS011;63008;53.112;8.896;2023-05-07T03:52:31;17.73;;;14.23;;
5125;SDS011;63008;53.112;8.896;2023-05-07T03:54:32;28.30;;;15.10;;
5125;SDS011;63008;53.112;8.896;2023-05-07T03:56:32;18.13;;;14.67;;
5125;SDS011;63008;53.112;8.896;2023-05-07T03:58:33;21.73;;;14.93;;
5125;SDS011;63008;53.112;8.896;2023-05-07T04:00:35;16.80;;;13.70;;
5125;SDS011;63008;53.112;8.896;2023-05-07T04:02:38;18.80;;;14.20;;
5125;SDS011;63008;53.112;8.896;2023-05-07T04:04:39;22.57;;;14.73;;
5125;SDS011;63008;53.112;8.896;2023-05-07T04:06:40;20.97;;;14.47;;
5125;SDS011;63008;53.112;8.896;2023-05-07T04:08:41;19.83;;;14.03;;
5125;SDS011;63008;53.112;8.896;2023-05-07T04:10:42;22.63;;;14.77;;
5125;SDS011;63008;53.112;8.896;2023-05-07T04:12:43;19.77;;;14.40;;
5125;SDS011;63008;53.112;8.896;2023-05-07T04:14:44;18.40;;;14.23;;
5125;SDS011;63008;53.112;8.896;2023-05-07T04:16:45;17.30;;;13.27;;
5125;SDS011;63008;53.112;8.896;2023-05-07T04:18:46;17.07;;;14.63;;
5125;SDS011;63008;53.112;8.896;2023-05-07T04:20:48;17.00;;;12.87;;
5125;SDS011;63008;53.112;8.896;2023-05-07T04:22:50;18.53;;;14.20;;
5125;SDS011;63008;53.112;8.896;2023-05-07T04:24:51;15.07;;;11.70;;
5125;SDS011;63008;53.112;8.896;2023-05-07T04:26:51;15.70;;;13.07;;
5125;SDS011;63008;53.112;8.896;2023-05-07T04:28:53;14.83;;;11.80;;
5125;SDS011;63008;53.112;8.896;2023-05-07T04:30:54;13.33;;;11.87;;
5125;SDS011;63008;53.112;8.896;2023-05-07T04:32:55;15.60;;;12.23;;
5125;SDS011;63008;53.112;8.896;2023-05-07T04:34:56;14.90;;;11.80;;
5125;SDS011;63008;53.112;8.896;2023-05-07T04:36:58;15.83;;;12.37;;
5125;SDS011;63008;53.112;8.896;2023-05-07T04:38:59;14.73;;;11.60;;
5125;SDS011;63008;53.112;8.896;2023-05-07T04:41:04;13.93;;;11.87;;
5125;SDS011;63008;53.112;8.896;2023-05-07T04:43:07;13.93;;;10.93;;
5125;SDS011;63008;53.112;8.896;2023-05-07T04:45:09;16.60;;;11.60;;
5125;SDS011;63008;53.112;8.896;2023-05-07T04:47:11;16.23;;;11.90;;
5125;SDS011;63008;53.112;8.896;2023-05-07T04:49:12;16.60;;;11.70;;
5125;SDS011;63008;53.112;8.896;2023-05-07T04:51:13;13.43;;;11.27;;
5125;SDS011;63008;53.112;8.896;2023-05-07T04:53:14;12.87;;;10.20;;
5125;SDS011;63008;53.112;8.896;2023-05-07T04:55:15;15.10;;;11.27;;
5125;SDS011;63008;53.112;8.896;2023-05-07T04:57:16;14.13;;;10.93;;
5125;SDS011;63008;53.112;8.896;2023-05-07T04:59:18;13.50;;;11.80;;
5125;SDS011;63008;53.112;8.896;2023-05-07T05:01:19;18.20;;;11.07;;
5125;SDS011;63008;53.112;8.896;2023-05-07T05:03:20;15.83;;;11.57;;
5125;SDS011;63008;53.112;8.896;2023-05-07T05:05:21;16.13;;;11.97;;
5125;SDS011;63008;53.112;8.896;2023-05-07T05:07:22;14.97;;;11.00;;
5125;SDS011;63008;53.112;8.896;2023-05-07T05:09:23;15.87;;;12.63;;
5125;SDS011;63008;53.112;8.896;2023-05-07T05:11:24;13.07;;;11.20;;
5125;SDS011;63008;53.112;8.896;2023-05-07T05:13:25;14.10;;;11.00;;
5125;SDS011;63008;53.112;8.896;2023-05-07T05:15:26;15.90;;;11.87;;
5125;SDS011;63008;53.112;8.896;2023-05-07T05:17:27;13.43;;;10.60;;
5125;SDS011;63008;53.112;8.896;2023-05-07T05:19:27;12.83;;;10.73;;
5125;SDS011;63008;53.112;8.896;2023-05-07T05:21:29;15.40;;;12.00;;
5125;SDS011;63008;53.112;8.896;2023-05-07T05:23:30;14.87;;;12.10;;
5125;SDS011;63008;53.112;8.896;2023-05-07T05:25:31;13.10;;;11.30;;
5125;SDS011;63008;53.112;8.896;2023-05-07T05:27:32;16.13;;;12.13;;
5125;SDS011;63008;53.112;8.896;2023-05-07T05:29:33;17.23;;;11.60;;
5125;SDS011;63008;53.112;8.896;2023-05-07T05:31:34;12.90;;;11.10;;
5125;SDS011;63008;53.112;8.896;2023-05-07T05:33:35;14.30;;;10.90;;
5125;SDS011;63008;53.112;8.896;2023-05-07T05:35:35;11.33;;;10.23;;
5125;SDS011;63008;53.112;8.896;2023-05-07T05:37:37;10.70;;;9.57;;
5125;SDS011;63008;53.112;8.896;2023-05-07T05:39:37;12.90;;;10.03;;
5125;SDS011;63008;53.112;8.896;2023-05-07T05:41:38;12.50;;;11.10;;
5125;SDS011;63008;53.112;8.896;2023-05-07T05:43:39;9.80;;;8.90;;
5125;SDS011;63008;53.112;8.896;2023-05-07T05:45:40;12.10;;;9.70;;
5125;SDS011;63008;53.112;8.896;2023-05-07T05:47:42;10.73;;;9.20;;
5125;SDS011;63008;53.112;8.896;2023-05-07T05:49:43;9.07;;;8.17;;
5125;SDS011;63008;53.112;8.896;2023-05-07T05:51:44;8.10;;;7.40;;
5125;SDS011;63008;53.112;8.896;2023-05-07T05:53:45;8.93;;;7.07;;
5125;SDS011;63008;53.112;8.896;2023-05-07T05:55:46;8.27;;;7.43;;
5125;SDS011;63008;53.112;8.896;2023-05-07T05:57:47;8.43;;;7.63;;
5125;SDS011;63008;53.112;8.896;2023-05-07T05:59:48;7.60;;;6.87;;
5125;SDS011;63008;53.112;8.896;2023-05-07T06:01:49;8.80;;;7.93;;
5125;SDS011;63008;53.112;8.896;2023-05-07T06:03:50;7.97;;;7.30;;
5125;SDS011;63008;53.112;8.896;2023-05-07T06:05:52;8.00;;;7.30;;
5125;SDS011;63008;53.112;8.896;2023-05-07T06:07:53;8.40;;;7.70;;
5125;SDS011;63008;53.112;8.896;2023-05-07T06:09:54;6.93;;;6.43;;
5125;SDS011;63008;53.112;8.896;2023-05-07T06:11:55;7.17;;;6.57;;
5125;SDS011;63008;53.112;8.896;2023-05-07T06:13:56;8.40;;;7.60;;
5125;SDS011;63008;53.112;8.896;2023-05-07T06:15:57;7.63;;;6.90;;
5125;SDS011;63008;53.112;8.896;2023-05-07T06:17:58;10.13;;;7.60;;
5125;SDS011;63008;53.112;8.896;2023-05-07T06:19:59;8.10;;;6.53;;
5125;SDS011;63008;53.112;8.896;2023-05-07T06:22:00;8.03;;;7.27;;
5125;SDS011;63008;53.112;8.896;2023-05-07T06:24:02;7.27;;;6.57;;
5125;SDS011;63008;53.112;8.896;2023-05-07T06:26:03;8.57;;;7.60;;
5125;SDS011;63008;53.112;8.896;2023-05-07T06:28:04;8.90;;;7.10;;
5125;SDS011;63008;53.112;8.896;2023-05-07T06:30:05;7.37;;;6.77;;
5125;SDS011;63008;53.112;8.896;2023-05-07T06:32:10;7.67;;;7.00;;
5125;SDS011;63008;53.112;8.896;2023-05-07T06:34:12;7.10;;;6.50;;
5125;SDS011;63008;53.112;8.896;2023-05-07T06:36:16;8.40;;;7.27;;
5125;SDS011;63008;53.112;8.896;2023-05-07T06:38:17;8.33;;;6.67;;
5125;SDS011;63008;53.112;8.896;2023-05-07T06:40:18;7.10;;;6.50;;
5125;SDS011;63008;53.112;8.896;2023-05-07T06:42:19;6.80;;;6.20;;
5125;SDS011;63008;53.112;8.896;2023-05-07T06:44:20;8.03;;;7.17;;
5125;SDS011;63008;53.112;8.896;2023-05-07T06:46:21;7.17;;;6.53;;
5125;SDS011;63008;53.112;8.896;2023-05-07T06:48:22;8.67;;;6.97;;
5125;SDS011;63008;53.112;8.896;2023-05-07T06:50:22;7.87;;;7.10;;
5125;SDS011;63008;53.112;8.896;2023-05-07T06:52:23;7.47;;;6.80;;
5125;SDS011;63008;53.112;8.896;2023-05-07T06:54:25;7.70;;;6.43;;
5125;SDS011;63008;53.112;8.896;2023-05-07T06:56:25;7.20;;;6.57;;
5125;SDS011;63008;53.112;8.896;2023-05-07T06:58:26;7.40;;;6.70;;
5125;SDS011;63008;53.112;8.896;2023-05-07T07:00:27;6.90;;;6.30;;
5125;SDS011;63008;53.112;8.896;2023-05-07T07:02:28;6.87;;;6.20;;
5125;SDS011;63008;53.112;8.896;2023-05-07T07:04:29;7.27;;;6.23;;
5125;SDS011;63008;53.112;8.896;2023-05-07T07:06:30;6.77;;;6.13;;
5125;SDS011;63008;53.112;8.896;2023-05-07T07:08:32;7.60;;;6.80;;
5125;SDS011;63008;53.112;8.896;2023-05-07T07:10:33;6.87;;;6.17;;
5125;SDS011;63008;53.112;8.896;2023-05-07T07:12:34;7.53;;;6.83;;
5125;SDS011;63008;53.112;8.896;2023-05-07T07:14:35;8.00;;;7.20;;
5125;SDS011;63008;53.112;8.896;2023-05-07T07:16:36;6.60;;;6.10;;
5125;SDS011;63008;53.112;8.896;2023-05-07T07:18:37;7.37;;;6.87;;
5125;SDS011;63008;53.112;8.896;2023-05-07T07:20:38;7.73;;;7.13;;
5125;SDS011;63008;53.112;8.896;2023-05-07T07:22:39;7.30;;;6.67;;
5125;SDS011;63008;53.112;8.896;2023-05-07T07:24:40;9.43;;;7.77;;
5125;SDS011;63008;53.112;8.896;2023-05-07T07:26:41;7.47;;;6.87;;
5125;SDS011;63008;53.112;8.896;2023-05-07T07:28:46;7.47;;;6.93;;
5125;SDS011;63008;53.112;8.896;2023-05-07T07:30:47;8.17;;;7.40;;
5125;SDS011;63008;53.112;8.896;2023-05-07T07:32:48;7.43;;;6.67;;
5125;SDS011;63008;53.112;8.896;2023-05-07T07:34:49;7.90;;;7.20;;
5125;SDS011;63008;53.112;8.896;2023-05-07T07:36:49;6.90;;;6.30;;
5125;SDS011;63008;53.112;8.896;2023-05-07T07:38:50;7.90;;;7.20;;
5125;SDS011;63008;53.112;8.896;2023-05-07T07:40:51;8.13;;;7.23;;
5125;SDS011;63008;53.112;8.896;2023-05-07T07:42:53;7.17;;;6.47;;
5125;SDS011;63008;53.112;8.896;2023-05-07T07:44:54;8.07;;;7.37;;
5125;SDS011;63008;53.112;8.896;2023-05-07T07:46:55;6.73;;;6.10;;
5125;SDS011;63008;53.112;8.896;2023-05-07T07:48:56;7.03;;;6.43;;
5125;SDS011;63008;53.112;8.896;2023-05-07T07:50:59;6.80;;;6.23;;
5125;SDS011;63008;53.112;8.896;2023-05-07T07:53:00;6.33;;;5.83;;
5125;SDS011;63008;53.112;8.896;2023-05-07T07:55:01;6.60;;;6.10;;
5125;SDS011;63008;53.112;8.896;2023-05-07T07:57:02;6.50;;;6.00;;
5125;SDS011;63008;53.112;8.896;2023-05-07T07:59:03;7.00;;;6.40;;
5125;SDS011;63008;53.112;8.896;2023-05-07T08:01:04;6.60;;;6.03;;
5125;SDS011;63008;53.112;8.896;2023-05-07T08:03:05;7.40;;;6.80;;
5125;SDS011;63008;53.112;8.896;2023-05-07T08:05:09;7.30;;;6.30;;
5125;SDS011;63008;53.112;8.896;2023-05-07T08:07:10;6.70;;;6.13;;
5125;SDS011;63008;53.112;8.896;2023-05-07T08:09:11;7.00;;;6.40;;
5125;SDS011;63008;53.112;8.896;2023-05-07T08:11:12;8.57;;;6.43;;
5125;SDS011;63008;53.112;8.896;2023-05-07T08:13:13;6.30;;;5.70;;
5125;SDS011;63008;53.112;8.896;2023-05-07T08:15:14;5.80;;;5.30;;
5125;SDS011;63008;53.112;8.896;2023-05-07T08:17:15;6.00;;;5.50;;
5125;SDS011;63008;53.112;8.896;2023-05-07T08:19:16;5.70;;;5.30;;
5125;SDS011;63008;53.112;8.896;2023-05-07T08:21:17;6.30;;;5.70;;
5125;SDS011;63008;53.112;8.896;2023-05-07T08:23:18;5.87;;;5.47;;
5125;SDS011;63008;53.112;8.896;2023-05-07T08:25:19;5.43;;;5.07;;
5125;SDS011;63008;53.112;8.896;2023-05-07T08:27:20;5.80;;;5.40;;
5125;SDS011;63008;53.112;8.896;2023-05-07T08:29:21;6.30;;;5.70;;
5125;SDS011;63008;53.112;8.896;2023-05-07T08:31:22;6.20;;;5.70;;
5125;SDS011;63008;53.112;8.896;2023-05-07T08:33:23;7.07;;;6.47;;
5125;SDS011;63008;53.112;8.896;2023-05-07T08:35:24;6.13;;;5.73;;
5125;SDS011;63008;53.112;8.896;2023-05-07T08:37:26;6.53;;;6.03;;
5125;SDS011;63008;53.112;8.896;2023-05-07T08:39:27;6.60;;;6.10;;
5125;SDS011;63008;53.112;8.896;2023-05-07T08:41:28;5.60;;;5.20;;
5125;SDS011;63008;53.112;8.896;2023-05-07T08:43:29;6.27;;;5.70;;
5125;SDS011;63008;53.112;8.896;2023-05-07T08:45:33;6.13;;;5.63;;
5125;SDS011;63008;53.112;8.896;2023-05-07T08:47:39;6.80;;;6.20;;
5125;SDS011;63008;53.112;8.896;2023-05-07T08:49:43;6.20;;;5.70;;
5125;SDS011;63008;53.112;8.896;2023-05-07T08:51:45;5.77;;;5.37;;
5125;SDS011;63008;53.112;8.896;2023-05-07T08:53:47;6.77;;;6.17;;
5125;SDS011;63008;53.112;8.896;2023-05-07T08:55:50;7.10;;;6.40;;
5125;SDS011;63008;53.112;8.896;2023-05-07T08:57:51;6.47;;;5.90;;
5125;SDS011;63008;53.112;8.896;2023-05-07T08:59:53;5.90;;;5.40;;
5125;SDS011;63008;53.112;8.896;2023-05-07T09:01:54;7.30;;;6.70;;
5125;SDS011;63008;53.112;8.896;2023-05-07T09:03:55;7.07;;;6.47;;
5125;SDS011;63008;53.112;8.896;2023-05-07T09:05:56;10.30;;;6.70;;
5125;SDS011;63008;53.112;8.896;2023-05-07T09:08:01;6.50;;;5.93;;
5125;SDS011;63008;53.112;8.896;2023-05-07T09:10:03;6.63;;;6.03;;
5125;SDS011;63008;53.112;8.896;2023-05-07T09:12:07;6.30;;;5.80;;
5125;SDS011;63008;53.112;8.896;2023-05-07T09:14:08;6.53;;;6.00;;
5125;SDS011;63008;53.112;8.896;2023-05-07T09:16:10;6.53;;;5.93;;
5125;SDS011;63008;53.112;8.896;2023-05-07T09:18:15;7.03;;;6.33;;
5125;SDS011;63008;53.112;8.896;2023-05-07T09:20:16;7.20;;;6.60;;
5125;SDS011;63008;53.112;8.896;2023-05-07T09:22:17;7.90;;;7.20;;
5125;SDS011;63008;53.112;8.896;2023-05-07T09:24:18;6.80;;;6.20;;
5125;SDS011;63008;53.112;8.896;2023-05-07T09:26:22;7.43;;;6.73;;
5125;SDS011;63008;53.112;8.896;2023-05-07T09:28:24;8.33;;;6.80;;
5125;SDS011;63008;53.112;8.896;2023-05-07T09:30:31;8.17;;;7.43;;
5125;SDS011;63008;53.112;8.896;2023-05-07T09:32:34;9.23;;;7.30;;
5125;SDS011;63008;53.112;8.896;2023-05-07T09:34:36;7.80;;;6.97;;
5125;SDS011;63008;53.112;8.896;2023-05-07T09:36:37;7.20;;;6.50;;
5125;SDS011;63008;53.112;8.896;2023-05-07T09:38:38;6.57;;;6.00;;
5125;SDS011;63008;53.112;8.896;2023-05-07T09:40:40;7.23;;;6.53;;
5125;SDS011;63008;53.112;8.896;2023-05-07T09:42:41;8.20;;;7.23;;
5125;SDS011;63008;53.112;8.896;2023-05-07T09:44:45;7.10;;;6.57;;
5125;SDS011;63008;53.112;8.896;2023-05-07T09:46:50;7.07;;;6.47;;
5125;SDS011;63008;53.112;8.896;2023-05-07T09:48:55;7.40;;;6.73;;
5125;SDS011;63008;53.112;8.896;2023-05-07T09:50:58;7.90;;;6.50;;
5125;SDS011;63008;53.112;8.896;2023-05-07T09:53:03;8.00;;;7.20;;
5125;SDS011;63008;53.112;8.896;2023-05-07T09:55:04;7.93;;;7.23;;
5125;SDS011;63008;53.112;8.896;2023-05-07T09:57:06;6.87;;;6.27;;
5125;SDS011;63008;53.112;8.896;2023-05-07T09:59:09;8.10;;;6.90;;
5125;SDS011;63008;53.112;8.896;2023-05-07T10:01:13;6.93;;;6.33;;
5125;SDS011;63008;53.112;8.896;2023-05-07T10:03:14;6.90;;;6.30;;
5125;SDS011;63008;53.112;8.896;2023-05-07T10:05:15;6.60;;;6.00;;
5125;SDS011;63008;53.112;8.896;2023-05-07T10:07:17;7.23;;;6.53;;
5125;SDS011;63008;53.112;8.896;2023-05-07T10:09:19;7.47;;;6.77;;
5125;SDS011;63008;53.112;8.896;2023-05-07T10:11:21;8.27;;;7.57;;
5125;SDS011;63008;53.112;8.896;2023-05-07T10:13:23;7.30;;;6.70;;
5125;SDS011;63008;53.112;8.896;2023-05-07T10:15:24;6.77;;;6.23;;
5125;SDS011;63008;53.112;8.896;2023-05-07T10:17:26;10.27;;;7.57;;
5125;SDS011;63008;53.112;8.896;2023-05-07T10:19:27;9.60;;;7.30;;
5125;SDS011;63008;53.112;8.896;2023-05-07T10:21:30;7.13;;;6.50;;
5125;SDS011;63008;53.112;8.896;2023-05-07T10:23:32;8.27;;;6.87;;
5125;SDS011;63008;53.112;8.896;2023-05-07T10:25:34;7.03;;;6.33;;
5125;SDS011;63008;53.112;8.896;2023-05-07T10:27:35;7.20;;;6.60;;
5125;SDS011;63008;53.112;8.896;2023-05-07T10:30:03;10.13;;;7.90;;
5125;SDS011;63008;53.112;8.896;2023-05-07T10:34:35;8.70;;;7.23;;
5125;SDS011;63008;53.112;8.896;2023-05-07T10:36:39;7.33;;;6.73;;
5125;SDS011;63008;53.112;8.896;2023-05-07T10:38:40;7.00;;;6.37;;
5125;SDS011;63008;53.112;8.896;2023-05-07T10:40:41;6.60;;;6.00;;
5125;SDS011;63008;53.112;8.896;2023-05-07T10:42:58;6.77;;;6.27;;
5125;SDS011;63008;53.112;8.896;2023-05-07T10:45:13;6.63;;;6.13;;
5125;SDS011;63008;53.112;8.896;2023-05-07T10:47:15;7.40;;;6.80;;
5125;SDS011;63008;53.112;8.896;2023-05-07T10:49:19;8.37;;;7.37;;
5125;SDS011;63008;53.112;8.896;2023-05-07T10:51:20;8.23;;;6.70;;
5125;SDS011;63008;53.112;8.896;2023-05-07T10:53:22;6.50;;;6.00;;
5125;SDS011;63008;53.112;8.896;2023-05-07T10:55:26;7.50;;;6.70;;
5125;SDS011;63008;53.112;8.896;2023-05-07T10:57:33;6.83;;;6.23;;
5125;SDS011;63008;53.112;8.896;2023-05-07T10:59:36;7.43;;;6.80;;
5125;SDS011;63008;53.112;8.896;2023-05-07T11:04:14;12.10;;;6.43;;
5125;SDS011;63008;53.112;8.896;2023-05-07T11:06:16;6.60;;;6.00;;
5125;SDS011;63008;53.112;8.896;2023-05-07T11:08:17;7.50;;;6.90;;
5125;SDS011;63008;53.112;8.896;2023-05-07T11:10:18;6.73;;;6.23;;
5125;SDS011;63008;53.112;8.896;2023-05-07T11:12:46;7.33;;;6.73;;
5125;SDS011;63008;53.112;8.896;2023-05-07T11:14:47;6.83;;;6.13;;
5125;SDS011;63008;53.112;8.896;2023-05-07T11:16:48;8.10;;;6.60;;
5125;SDS011;63008;53.112;8.896;2023-05-07T11:18:50;7.60;;;5.60;;
5125;SDS011;63008;53.112;8.896;2023-05-07T11:20:53;6.10;;;5.60;;
5125;SDS011;63008;53.112;8.896;2023-05-07T11:22:56;9.93;;;5.67;;
5125;SDS011;63008;53.112;8.896;2023-05-07T11:24:59;6.77;;;6.27;;
5125;SDS011;63008;53.112;8.896;2023-05-07T11:27:00;6.17;;;5.67;;
5125;SDS011;63008;53.112;8.896;2023-05-07T11:29:01;6.93;;;5.50;;
5125;SDS011;63008;53.112;8.896;2023-05-07T11:31:02;6.07;;;5.47;;
5125;SDS011;63008;53.112;8.896;2023-05-07T11:33:03;6.10;;;5.60;;
5125;SDS011;63008;53.112;8.896;2023-05-07T11:35:05;6.63;;;6.03;;
5125;SDS011;63008;53.112;8.896;2023-05-07T11:37:07;8.10;;;6.67;;
5125;SDS011;63008;53.112;8.896;2023-05-07T11:39:29;6.37;;;5.87;;
5125;SDS011;63008;53.112;8.896;2023-05-07T11:41:33;6.53;;;6.00;;
5125;SDS011;63008;53.112;8.896;2023-05-07T11:43:37;5.90;;;5.40;;
5125;SDS011;63008;53.112;8.896;2023-05-07T11:45:40;5.83;;;5.43;;
5125;SDS011;63008;53.112;8.896;2023-05-07T11:47:41;8.00;;;6.13;;
5125;SDS011;63008;53.112;8.896;2023-05-07T11:49:42;6.10;;;5.70;;
5125;SDS011;63008;53.112;8.896;2023-05-07T11:51:43;6.60;;;6.00;;
5125;SDS011;63008;53.112;8.896;2023-05-07T11:53:45;6.07;;;5.37;;
5125;SDS011;63008;53.112;8.896;2023-05-07T11:55:46;7.00;;;5.77;;
5125;SDS011;63008;53.112;8.896;2023-05-07T11:57:47;6.53;;;5.93;;
5125;SDS011;63008;53.112;8.896;2023-05-07T11:59:52;9.50;;;6.30;;
5125;SDS011;63008;53.112;8.896;2023-05-07T12:01:59;5.90;;;5.40;;
5125;SDS011;63008;53.112;8.896;2023-05-07T12:04:02;6.70;;;5.37;;
5125;SDS011;63008;53.112;8.896;2023-05-07T12:06:06;6.17;;;5.67;;
5125;SDS011;63008;53.112;8.896;2023-05-07T12:08:07;6.23;;;5.80;;
5125;SDS011;63008;53.112;8.896;2023-05-07T12:10:09;6.80;;;5.70;;
5125;SDS011;63008;53.112;8.896;2023-05-07T12:12:12;5.90;;;5.50;;
5125;SDS011;63008;53.112;8.896;2023-05-07T12:14:15;6.00;;;5.50;;
5125;SDS011;63008;53.112;8.896;2023-05-07T12:16:17;6.60;;;5.63;;
5125;SDS011;63008;53.112;8.896;2023-05-07T12:18:18;6.67;;;5.60;;
5125;SDS011;63008;53.112;8.896;2023-05-07T12:20:21;6.20;;;5.80;;